sensor_id;sensor_type;location;lat;lon;timestamp;P1;durP1;ratioP1;P2;durP2;ratioP2
75537;SDS011;64121;48.666;8.114;2022-11-12T00:01:32;7.68;;;5.30;;
75537;SDS011;64121;48.666;8.114;2022-11-12T00:03:58;11.18;;;5.30;;
75537;SDS011;64121;48.666;8.114;2022-11-12T00:06:23;7.15;;;5.05;;
75537;SDS011;64121;48.666;8.114;2022-11-12T00:08:48;7.78;;;5.45;;
75537;SDS011;64121;48.666;8.114;2022-11-12T00:11:14;12.82;;;6.03;;
75537;SDS011;64121;48.666;8.114;2022-11-12T00:13:39;11.93;;;5.57;;
75537;SDS011;64121;48.666;8.114;2022-11-12T00:16:06;6.50;;;5.10;;
75537;SDS011;64121;48.666;8.114;2022-11-12T00:18:32;8.20;;;5.55;;
75537;SDS011;64121;48.666;8.114;2022-11-12T00:20:57;11.05;;;5.15;;
75537;SDS011;64121;48.666;8.114;2022-11-12T00:23:22;15.00;;;5.65;;
75537;SDS011;64121;48.666;8.114;2022-11-12T00:25:56;6.32;;;4.70;;
75537;SDS011;64121;48.666;8.114;2022-11-12T00:28:22;7.40;;;4.93;;
75537;SDS011;64121;48.666;8.114;2022-11-12T00:30:47;24.88;;;6.50;;
75537;SDS011;64121;48.666;8.114;2022-11-12T00:33:14;7.25;;;5.18;;
75537;SDS011;64121;48.666;8.114;2022-11-12T00:35:39;5.85;;;4.85;;
75537;SDS011;64121;48.666;8.114;2022-11-12T00:38:05;7.10;;;5.05;;
75537;SDS011;64121;48.666;8.114;2022-11-12T00:40:30;11.68;;;5.38;;
75537;SDS011;64121;48.666;8.114;2022-11-12T00:42:55;8.52;;;5.20;;
75537;SDS011;64121;48.666;8.114;2022-11-12T00:45:21;6.97;;;4.82;;
75537;SDS011;64121;48.666;8.114;2022-11-12T00:47:46;8.40;;;5.13;;
75537;SDS011;64121;48.666;8.114;2022-11-12T00:50:13;6.68;;;4.78;;
75537;SDS011;64121;48.666;8.114;2022-11-12T00:52:38;16.63;;;5.57;;
75537;SDS011;64121;48.666;8.114;2022-11-12T00:55:04;17.98;;;5.53;;
75537;SDS011;64121;48.666;8.114;2022-11-12T00:57:29;7.30;;;4.78;;
75537;SDS011;64121;48.666;8.114;2022-11-12T00:59:55;6.13;;;4.13;;
75537;SDS011;64121;48.666;8.114;2022-11-12T01:02:20;14.10;;;5.25;;
75537;SDS011;64121;48.666;8.114;2022-11-12T01:04:45;16.67;;;4.60;;
75537;SDS011;64121;48.666;8.114;2022-11-12T01:07:12;8.68;;;4.30;;
75537;SDS011;64121;48.666;8.114;2022-11-12T01:09:37;11.05;;;4.68;;
75537;SDS011;64121;48.666;8.114;2022-11-12T01:12:03;25.52;;;5.53;;
75537;SDS011;64121;48.666;8.114;2022-11-12T01:14:29;6.18;;;4.65;;
75537;SDS011;64121;48.666;8.114;2022-11-12T01:16:54;13.68;;;4.78;;
75537;SDS011;64121;48.666;8.114;2022-11-12T01:19:19;9.27;;;3.95;;
75537;SDS011;64121;48.666;8.114;2022-11-12T01:21:44;6.60;;;4.25;;
75537;SDS011;64121;48.666;8.114;2022-11-12T01:24:11;6.30;;;4.35;;
75537;SDS011;64121;48.666;8.114;2022-11-12T01:26:37;13.98;;;4.70;;
75537;SDS011;64121;48.666;8.114;2022-11-12T01:29:03;23.85;;;4.75;;
75537;SDS011;64121;48.666;8.114;2022-11-12T01:31:29;5.80;;;4.07;;
75537;SDS011;64121;48.666;8.114;2022-11-12T01:33:57;8.85;;;4.30;;
75537;SDS011;64121;48.666;8.114;2022-11-12T01:36:24;5.55;;;3.90;;
75537;SDS011;64121;48.666;8.114;2022-11-12T01:38:51;5.75;;;3.65;;
75537;SDS011;64121;48.666;8.114;2022-11-12T01:41:20;8.40;;;3.70;;
75537;SDS011;64121;48.666;8.114;2022-11-12T01:43:46;4.93;;;3.53;;
75537;SDS011;64121;48.666;8.114;2022-11-12T01:46:13;9.35;;;4.05;;
75537;SDS011;64121;48.666;8.114;2022-11-12T01:48:45;8.43;;;4.13;;
75537;SDS011;64121;48.666;8.114;2022-11-12T01:51:13;6.07;;;3.65;;
75537;SDS011;64121;48.666;8.114;2022-11-12T01:53:40;6.25;;;4.28;;
75537;SDS011;64121;48.666;8.114;2022-11-12T01:56:10;7.55;;;4.10;;
75537;SDS011;64121;48.666;8.114;2022-11-12T01:58:37;7.93;;;3.30;;
75537;SDS011;64121;48.666;8.114;2022-11-12T02:01:03;7.65;;;3.67;;
75537;SDS011;64121;48.666;8.114;2022-11-12T02:03:29;5.53;;;3.10;;
75537;SDS011;64121;48.666;8.114;2022-11-12T02:05:55;4.13;;;3.22;;
75537;SDS011;64121;48.666;8.114;2022-11-12T02:08:23;10.05;;;3.97;;
75537;SDS011;64121;48.666;8.114;2022-11-12T02:10:50;6.38;;;3.75;;
75537;SDS011;64121;48.666;8.114;2022-11-12T02:13:16;6.38;;;3.63;;
75537;SDS011;64121;48.666;8.114;2022-11-12T02:15:43;19.75;;;4.47;;
75537;SDS011;64121;48.666;8.114;2022-11-12T02:18:09;5.57;;;3.45;;
75537;SDS011;64121;48.666;8.114;2022-11-12T02:20:34;4.28;;;3.38;;
75537;SDS011;64121;48.666;8.114;2022-11-12T02:23:03;4.70;;;3.58;;
75537;SDS011;64121;48.666;8.114;2022-11-12T02:25:29;4.97;;;3.38;;
75537;SDS011;64121;48.666;8.114;2022-11-12T02:27:55;4.60;;;3.15;;
75537;SDS011;64121;48.666;8.114;2022-11-12T02:30:30;4.57;;;3.30;;
75537;SDS011;64121;48.666;8.114;2022-11-12T02:32:57;4.78;;;3.50;;
75537;SDS011;64121;48.666;8.114;2022-11-12T02:35:22;6.35;;;3.63;;
75537;SDS011;64121;48.666;8.114;2022-11-12T02:37:47;5.97;;;3.47;;
75537;SDS011;64121;48.666;8.114;2022-11-12T02:40:14;7.18;;;3.25;;
75537;SDS011;64121;48.666;8.114;2022-11-12T02:42:40;6.93;;;3.22;;
75537;SDS011;64121;48.666;8.114;2022-11-12T02:45:05;6.75;;;3.42;;
75537;SDS011;64121;48.666;8.114;2022-11-12T02:47:31;12.55;;;3.80;;
75537;SDS011;64121;48.666;8.114;2022-11-12T02:49:56;4.88;;;3.60;;
75537;SDS011;64121;48.666;8.114;2022-11-12T02:52:22;11.40;;;3.72;;
75537;SDS011;64121;48.666;8.114;2022-11-12T02:54:47;4.65;;;3.58;;
75537;SDS011;64121;48.666;8.114;2022-11-12T02:57:14;4.70;;;3.33;;
75537;SDS011;64121;48.666;8.114;2022-11-12T02:59:39;4.55;;;3.10;;
75537;SDS011;64121;48.666;8.114;2022-11-12T03:02:04;4.50;;;3.15;;
75537;SDS011;64121;48.666;8.114;2022-11-12T03:04:30;9.55;;;3.80;;
75537;SDS011;64121;48.666;8.114;2022-11-12T03:06:55;4.72;;;3.33;;
75537;SDS011;64121;48.666;8.114;2022-11-12T03:09:20;4.80;;;3.42;;
75537;SDS011;64121;48.666;8.114;2022-11-12T03:11:46;9.70;;;3.53;;
75537;SDS011;64121;48.666;8.114;2022-11-12T03:14:12;7.07;;;3.40;;
75537;SDS011;64121;48.666;8.114;2022-11-12T03:16:38;6.65;;;3.60;;
75537;SDS011;64121;48.666;8.114;2022-11-12T03:19:03;4.22;;;3.15;;
75537;SDS011;64121;48.666;8.114;2022-11-12T03:21:28;5.03;;;3.15;;
75537;SDS011;64121;48.666;8.114;2022-11-12T03:23:54;5.90;;;2.97;;
75537;SDS011;64121;48.666;8.114;2022-11-12T03:26:19;4.30;;;3.00;;
75537;SDS011;64121;48.666;8.114;2022-11-12T03:28:44;4.45;;;2.90;;
75537;SDS011;64121;48.666;8.114;2022-11-12T03:31:11;4.70;;;3.25;;
75537;SDS011;64121;48.666;8.114;2022-11-12T03:33:36;4.22;;;2.58;;
75537;SDS011;64121;48.666;8.114;2022-11-12T03:36:02;9.68;;;3.20;;
75537;SDS011;64121;48.666;8.114;2022-11-12T03:38:27;5.40;;;3.47;;
75537;SDS011;64121;48.666;8.114;2022-11-12T03:40:53;10.10;;;3.45;;
75537;SDS011;64121;48.666;8.114;2022-11-12T03:43:18;3.30;;;2.72;;
75537;SDS011;64121;48.666;8.114;2022-11-12T03:45:43;4.13;;;2.58;;
75537;SDS011;64121;48.666;8.114;2022-11-12T03:48:10;4.28;;;2.78;;
75537;SDS011;64121;48.666;8.114;2022-11-12T03:50:35;4.63;;;2.63;;
75537;SDS011;64121;48.666;8.114;2022-11-12T03:53:01;13.52;;;2.78;;
75537;SDS011;64121;48.666;8.114;2022-11-12T03:55:27;14.18;;;3.22;;
75537;SDS011;64121;48.666;8.114;2022-11-12T03:57:53;3.97;;;2.70;;
75537;SDS011;64121;48.666;8.114;2022-11-12T04:00:20;5.93;;;3.10;;
75537;SDS011;64121;48.666;8.114;2022-11-12T04:02:46;6.60;;;3.03;;
75537;SDS011;64121;48.666;8.114;2022-11-12T04:05:14;4.95;;;3.20;;
75537;SDS011;64121;48.666;8.114;2022-11-12T04:07:39;17.25;;;3.20;;
75537;SDS011;64121;48.666;8.114;2022-11-12T04:10:05;3.97;;;2.63;;
75537;SDS011;64121;48.666;8.114;2022-11-12T04:12:30;3.80;;;2.58;;
75537;SDS011;64121;48.666;8.114;2022-11-12T04:14:56;4.35;;;2.80;;
75537;SDS011;64121;48.666;8.114;2022-11-12T04:17:21;4.65;;;3.08;;
75537;SDS011;64121;48.666;8.114;2022-11-12T04:19:46;4.65;;;2.72;;
75537;SDS011;64121;48.666;8.114;2022-11-12T04:22:13;22.77;;;3.25;;
75537;SDS011;64121;48.666;8.114;2022-11-12T04:24:39;17.02;;;3.40;;
75537;SDS011;64121;48.666;8.114;2022-11-12T04:27:06;3.85;;;2.65;;
75537;SDS011;64121;48.666;8.114;2022-11-12T04:29:33;4.05;;;2.60;;
75537;SDS011;64121;48.666;8.114;2022-11-12T04:31:58;4.10;;;2.90;;
75537;SDS011;64121;48.666;8.114;2022-11-12T04:34:23;4.18;;;2.50;;
75537;SDS011;64121;48.666;8.114;2022-11-12T04:36:49;4.18;;;2.80;;
75537;SDS011;64121;48.666;8.114;2022-11-12T04:39:15;5.22;;;2.70;;
75537;SDS011;64121;48.666;8.114;2022-11-12T04:41:40;6.43;;;3.22;;
75537;SDS011;64121;48.666;8.114;2022-11-12T04:44:06;13.50;;;3.20;;
75537;SDS011;64121;48.666;8.114;2022-11-12T04:46:31;3.70;;;2.40;;
75537;SDS011;64121;48.666;8.114;2022-11-12T04:48:57;10.68;;;2.85;;
75537;SDS011;64121;48.666;8.114;2022-11-12T04:51:22;28.88;;;3.80;;
75537;SDS011;64121;48.666;8.114;2022-11-12T04:53:47;26.58;;;3.13;;
75537;SDS011;64121;48.666;8.114;2022-11-12T04:56:14;42.45;;;4.50;;
75537;SDS011;64121;48.666;8.114;2022-11-12T04:58:39;36.60;;;3.40;;
75537;SDS011;64121;48.666;8.114;2022-11-12T05:01:05;8.95;;;2.90;;
75537;SDS011;64121;48.666;8.114;2022-11-12T05:03:30;5.47;;;4.22;;
75537;SDS011;64121;48.666;8.114;2022-11-12T05:05:59;14.05;;;4.07;;
75537;SDS011;64121;48.666;8.114;2022-11-12T05:08:24;22.48;;;3.67;;
75537;SDS011;64121;48.666;8.114;2022-11-12T05:10:50;10.50;;;3.30;;
75537;SDS011;64121;48.666;8.114;2022-11-12T05:13:16;17.77;;;3.13;;
75537;SDS011;64121;48.666;8.114;2022-11-12T05:15:42;6.55;;;2.15;;
75537;SDS011;64121;48.666;8.114;2022-11-12T05:18:07;3.60;;;2.30;;
75537;SDS011;64121;48.666;8.114;2022-11-12T05:20:33;3.30;;;2.33;;
75537;SDS011;64121;48.666;8.114;2022-11-12T05:22:59;4.60;;;2.03;;
75537;SDS011;64121;48.666;8.114;2022-11-12T05:25:24;2.90;;;1.95;;
75537;SDS011;64121;48.666;8.114;2022-11-12T05:27:49;4.22;;;2.20;;
75537;SDS011;64121;48.666;8.114;2022-11-12T05:30:16;4.63;;;2.10;;
75537;SDS011;64121;48.666;8.114;2022-11-12T05:32:42;4.32;;;2.30;;
75537;SDS011;64121;48.666;8.114;2022-11-12T05:35:07;29.58;;;3.13;;
75537;SDS011;64121;48.666;8.114;2022-11-12T05:37:33;6.50;;;2.20;;
75537;SDS011;64121;48.666;8.114;2022-11-12T05:39:58;16.42;;;2.55;;
75537;SDS011;64121;48.666;8.114;2022-11-12T05:42:23;3.42;;;1.83;;
75537;SDS011;64121;48.666;8.114;2022-11-12T05:44:49;4.32;;;2.20;;
75537;SDS011;64121;48.666;8.114;2022-11-12T05:47:15;2.92;;;1.83;;
75537;SDS011;64121;48.666;8.114;2022-11-12T05:49:40;3.00;;;1.85;;
75537;SDS011;64121;48.666;8.114;2022-11-12T05:52:06;2.90;;;1.90;;
75537;SDS011;64121;48.666;8.114;2022-11-12T05:54:31;3.35;;;2.17;;
75537;SDS011;64121;48.666;8.114;2022-11-12T05:56:56;3.90;;;2.20;;
75537;SDS011;64121;48.666;8.114;2022-11-12T05:59:22;3.38;;;2.05;;
75537;SDS011;64121;48.666;8.114;2022-11-12T06:01:47;11.27;;;2.50;;
75537;SDS011;64121;48.666;8.114;2022-11-12T06:04:14;3.70;;;2.38;;
75537;SDS011;64121;48.666;8.114;2022-11-12T06:06:40;3.25;;;1.95;;
75537;SDS011;64121;48.666;8.114;2022-11-12T06:09:06;3.67;;;2.20;;
75537;SDS011;64121;48.666;8.114;2022-11-12T06:11:33;3.47;;;2.35;;
75537;SDS011;64121;48.666;8.114;2022-11-12T06:13:59;2.75;;;1.95;;
75537;SDS011;64121;48.666;8.114;2022-11-12T06:16:25;3.08;;;2.10;;
75537;SDS011;64121;48.666;8.114;2022-11-12T06:18:50;3.22;;;1.80;;
75537;SDS011;64121;48.666;8.114;2022-11-12T06:21:17;3.67;;;2.17;;
75537;SDS011;64121;48.666;8.114;2022-11-12T06:23:42;3.25;;;1.85;;
75537;SDS011;64121;48.666;8.114;2022-11-12T06:26:07;3.40;;;2.20;;
75537;SDS011;64121;48.666;8.114;2022-11-12T06:28:33;6.03;;;2.35;;
75537;SDS011;64121;48.666;8.114;2022-11-12T06:30:58;5.88;;;2.28;;
75537;SDS011;64121;48.666;8.114;2022-11-12T06:33:23;7.65;;;2.38;;
75537;SDS011;64121;48.666;8.114;2022-11-12T06:35:55;6.82;;;2.65;;
75537;SDS011;64121;48.666;8.114;2022-11-12T06:38:22;21.95;;;2.80;;
75537;SDS011;64121;48.666;8.114;2022-11-12T06:40:47;3.78;;;2.33;;
75537;SDS011;64121;48.666;8.114;2022-11-12T06:43:13;28.10;;;3.70;;
75537;SDS011;64121;48.666;8.114;2022-11-12T06:45:38;8.55;;;2.30;;
75537;SDS011;64121;48.666;8.114;2022-11-12T06:48:03;4.80;;;2.30;;
75537;SDS011;64121;48.666;8.114;2022-11-12T06:50:29;3.35;;;2.20;;
75537;SDS011;64121;48.666;8.114;2022-11-12T06:52:56;13.73;;;2.70;;
75537;SDS011;64121;48.666;8.114;2022-11-12T06:55:23;6.93;;;2.00;;
75537;SDS011;64121;48.666;8.114;2022-11-12T06:57:50;2.78;;;1.92;;
75537;SDS011;64121;48.666;8.114;2022-11-12T07:00:16;3.13;;;2.00;;
75537;SDS011;64121;48.666;8.114;2022-11-12T07:02:41;3.58;;;2.40;;
75537;SDS011;64121;48.666;8.114;2022-11-12T07:05:08;4.97;;;2.67;;
75537;SDS011;64121;48.666;8.114;2022-11-12T07:07:33;3.03;;;2.17;;
75537;SDS011;64121;48.666;8.114;2022-11-12T07:09:58;6.25;;;2.42;;
75537;SDS011;64121;48.666;8.114;2022-11-12T07:12:25;5.70;;;2.58;;
75537;SDS011;64121;48.666;8.114;2022-11-12T07:14:50;3.63;;;2.30;;
75537;SDS011;64121;48.666;8.114;2022-11-12T07:17:16;3.25;;;2.22;;
75537;SDS011;64121;48.666;8.114;2022-11-12T07:19:41;5.03;;;1.90;;
75537;SDS011;64121;48.666;8.114;2022-11-12T07:22:06;3.95;;;2.45;;
75537;SDS011;64121;48.666;8.114;2022-11-12T07:24:32;3.40;;;2.38;;
75537;SDS011;64121;48.666;8.114;2022-11-12T07:26:57;4.68;;;2.50;;
75537;SDS011;64121;48.666;8.114;2022-11-12T07:29:24;6.68;;;3.38;;
75537;SDS011;64121;48.666;8.114;2022-11-12T07:31:49;3.97;;;2.40;;
75537;SDS011;64121;48.666;8.114;2022-11-12T07:34:14;7.93;;;2.72;;
75537;SDS011;64121;48.666;8.114;2022-11-12T07:36:40;9.70;;;2.83;;
75537;SDS011;64121;48.666;8.114;2022-11-12T07:39:05;3.63;;;2.35;;
75537;SDS011;64121;48.666;8.114;2022-11-12T07:41:30;6.03;;;4.32;;
75537;SDS011;64121;48.666;8.114;2022-11-12T07:43:56;4.78;;;3.88;;
75537;SDS011;64121;48.666;8.114;2022-11-12T07:46:23;4.28;;;3.28;;
75537;SDS011;64121;48.666;8.114;2022-11-12T07:48:50;4.47;;;3.03;;
75537;SDS011;64121;48.666;8.114;2022-11-12T07:51:18;5.40;;;3.67;;
75537;SDS011;64121;48.666;8.114;2022-11-12T07:53:45;5.40;;;2.80;;
75537;SDS011;64121;48.666;8.114;2022-11-12T07:56:12;6.68;;;2.65;;
75537;SDS011;64121;48.666;8.114;2022-11-12T07:58:40;4.25;;;2.70;;
75537;SDS011;64121;48.666;8.114;2022-11-12T08:01:06;5.10;;;3.05;;
75537;SDS011;64121;48.666;8.114;2022-11-12T08:03:34;6.07;;;3.22;;
75537;SDS011;64121;48.666;8.114;2022-11-12T08:05:59;6.18;;;3.03;;
75537;SDS011;64121;48.666;8.114;2022-11-12T08:08:25;8.73;;;3.60;;
75537;SDS011;64121;48.666;8.114;2022-11-12T08:10:52;5.15;;;3.03;;
75537;SDS011;64121;48.666;8.114;2022-11-12T08:13:18;7.00;;;3.25;;
75537;SDS011;64121;48.666;8.114;2022-11-12T08:15:43;4.25;;;3.00;;
75537;SDS011;64121;48.666;8.114;2022-11-12T08:18:09;5.75;;;3.38;;
75537;SDS011;64121;48.666;8.114;2022-11-12T08:20:35;9.55;;;3.38;;
75537;SDS011;64121;48.666;8.114;2022-11-12T08:23:01;7.80;;;3.55;;
75537;SDS011;64121;48.666;8.114;2022-11-12T08:25:26;9.13;;;3.60;;
75537;SDS011;64121;48.666;8.114;2022-11-12T08:27:54;4.93;;;3.10;;
75537;SDS011;64121;48.666;8.114;2022-11-12T08:30:20;4.63;;;3.30;;
75537;SDS011;64121;48.666;8.114;2022-11-12T08:32:45;5.22;;;3.40;;
75537;SDS011;64121;48.666;8.114;2022-11-12T08:35:11;5.63;;;3.60;;
75537;SDS011;64121;48.666;8.114;2022-11-12T08:37:37;6.30;;;3.92;;
75537;SDS011;64121;48.666;8.114;2022-11-12T08:40:03;7.10;;;4.22;;
75537;SDS011;64121;48.666;8.114;2022-11-12T08:42:29;6.55;;;5.13;;
75537;SDS011;64121;48.666;8.114;2022-11-12T08:44:54;8.50;;;4.95;;
75537;SDS011;64121;48.666;8.114;2022-11-12T08:47:19;8.25;;;4.53;;
75537;SDS011;64121;48.666;8.114;2022-11-12T08:49:45;6.78;;;4.28;;
75537;SDS011;64121;48.666;8.114;2022-11-12T08:52:10;9.45;;;5.15;;
75537;SDS011;64121;48.666;8.114;2022-11-12T08:54:37;7.00;;;4.35;;
75537;SDS011;64121;48.666;8.114;2022-11-12T08:57:02;6.40;;;4.07;;
75537;SDS011;64121;48.666;8.114;2022-11-12T08:59:27;7.00;;;4.78;;
75537;SDS011;64121;48.666;8.114;2022-11-12T09:01:53;6.85;;;4.28;;
75537;SDS011;64121;48.666;8.114;2022-11-12T09:04:18;7.40;;;4.40;;
75537;SDS011;64121;48.666;8.114;2022-11-12T09:06:43;6.60;;;4.35;;
75537;SDS011;64121;48.666;8.114;2022-11-12T09:09:09;6.97;;;4.53;;
75537;SDS011;64121;48.666;8.114;2022-11-12T09:11:35;10.20;;;6.50;;
75537;SDS011;64121;48.666;8.114;2022-11-12T09:14:01;10.48;;;6.18;;
75537;SDS011;64121;48.666;8.114;2022-11-12T09:16:26;9.52;;;6.18;;
75537;SDS011;64121;48.666;8.114;2022-11-12T09:18:51;8.73;;;5.85;;
75537;SDS011;64121;48.666;8.114;2022-11-12T09:21:17;7.18;;;5.20;;
75537;SDS011;64121;48.666;8.114;2022-11-12T09:23:42;7.40;;;4.55;;
75537;SDS011;64121;48.666;8.114;2022-11-12T09:26:07;7.47;;;4.80;;
75537;SDS011;64121;48.666;8.114;2022-11-12T09:28:34;9.00;;;5.15;;
75537;SDS011;64121;48.666;8.114;2022-11-12T09:31:00;6.72;;;4.88;;
75537;SDS011;64121;48.666;8.114;2022-11-12T09:33:28;8.68;;;5.55;;
75537;SDS011;64121;48.666;8.114;2022-11-12T09:35:54;7.57;;;5.35;;
75537;SDS011;64121;48.666;8.114;2022-11-12T09:38:20;7.35;;;4.97;;
75537;SDS011;64121;48.666;8.114;2022-11-12T09:41:04;9.15;;;5.78;;
75537;SDS011;64121;48.666;8.114;2022-11-12T09:43:40;6.72;;;5.20;;
75537;SDS011;64121;48.666;8.114;2022-11-12T09:46:13;6.03;;;4.45;;
75537;SDS011;64121;48.666;8.114;2022-11-12T09:48:50;6.68;;;4.72;;
75537;SDS011;64121;48.666;8.114;2022-11-12T09:51:20;7.25;;;4.72;;
75537;SDS011;64121;48.666;8.114;2022-11-12T09:53:51;7.20;;;4.97;;
75537;SDS011;64121;48.666;8.114;2022-11-12T09:56:20;6.68;;;4.63;;
75537;SDS011;64121;48.666;8.114;2022-11-12T09:58:47;5.95;;;4.30;;
75537;SDS011;64121;48.666;8.114;2022-11-12T10:01:13;6.55;;;4.28;;
75537;SDS011;64121;48.666;8.114;2022-11-12T10:03:43;8.25;;;5.68;;
75537;SDS011;64121;48.666;8.114;2022-11-12T10:06:18;7.10;;;4.75;;
75537;SDS011;64121;48.666;8.114;2022-11-12T10:08:49;6.13;;;4.72;;
75537;SDS011;64121;48.666;8.114;2022-11-12T10:11:30;8.32;;;5.18;;
75537;SDS011;64121;48.666;8.114;2022-11-12T10:14:10;7.57;;;5.25;;
75537;SDS011;64121;48.666;8.114;2022-11-12T10:16:49;7.15;;;4.38;;
75537;SDS011;64121;48.666;8.114;2022-11-12T10:19:23;8.27;;;4.80;;
75537;SDS011;64121;48.666;8.114;2022-11-12T10:21:57;5.97;;;4.68;;
75537;SDS011;64121;48.666;8.114;2022-11-12T10:24:32;6.78;;;4.35;;
75537;SDS011;64121;48.666;8.114;2022-11-12T10:27:01;8.50;;;4.80;;
75537;SDS011;64121;48.666;8.114;2022-11-12T10:29:38;6.03;;;4.65;;
75537;SDS011;64121;48.666;8.114;2022-11-12T10:32:12;6.82;;;4.38;;
75537;SDS011;64121;48.666;8.114;2022-11-12T10:34:39;5.82;;;4.20;;
75537;SDS011;64121;48.666;8.114;2022-11-12T10:37:05;8.10;;;4.80;;
75537;SDS011;64121;48.666;8.114;2022-11-12T10:39:35;7.82;;;5.22;;
75537;SDS011;64121;48.666;8.114;2022-11-12T10:42:03;7.07;;;5.10;;
75537;SDS011;64121;48.666;8.114;2022-11-12T10:44:31;7.07;;;4.85;;
75537;SDS011;64121;48.666;8.114;2022-11-12T10:50:01;8.18;;;6.45;;
75537;SDS011;64121;48.666;8.114;2022-11-12T10:52:38;11.75;;;9.35;;
75537;SDS011;64121;48.666;8.114;2022-11-12T10:55:17;9.13;;;6.28;;
75537;SDS011;64121;48.666;8.114;2022-11-12T10:57:44;11.73;;;9.40;;
75537;SDS011;64121;48.666;8.114;2022-11-12T11:00:19;10.35;;;6.72;;
75537;SDS011;64121;48.666;8.114;2022-11-12T11:02:45;9.10;;;6.30;;
75537;SDS011;64121;48.666;8.114;2022-11-12T11:05:23;7.20;;;4.82;;
75537;SDS011;64121;48.666;8.114;2022-11-12T11:07:53;7.35;;;4.70;;
75537;SDS011;64121;48.666;8.114;2022-11-12T11:10:21;7.60;;;5.35;;
75537;SDS011;64121;48.666;8.114;2022-11-12T11:12:49;9.00;;;6.20;;
75537;SDS011;64121;48.666;8.114;2022-11-12T11:15:32;8.52;;;5.97;;
75537;SDS011;64121;48.666;8.114;2022-11-12T11:17:58;9.82;;;6.85;;
75537;SDS011;64121;48.666;8.114;2022-11-12T11:20:26;11.20;;;7.13;;
75537;SDS011;64121;48.666;8.114;2022-11-12T11:22:55;10.95;;;7.95;;
75537;SDS011;64121;48.666;8.114;2022-11-12T11:25:24;10.90;;;7.40;;
75537;SDS011;64121;48.666;8.114;2022-11-12T11:27:58;10.88;;;7.07;;
75537;SDS011;64121;48.666;8.114;2022-11-12T11:30:36;9.35;;;6.45;;
75537;SDS011;64121;48.666;8.114;2022-11-12T11:36:07;11.73;;;7.78;;
75537;SDS011;64121;48.666;8.114;2022-11-12T11:38:53;10.50;;;7.15;;
75537;SDS011;64121;48.666;8.114;2022-11-12T11:41:27;9.07;;;7.45;;
75537;SDS011;64121;48.666;8.114;2022-11-12T11:44:04;11.43;;;8.13;;
75537;SDS011;64121;48.666;8.114;2022-11-12T11:46:42;12.30;;;7.57;;
75537;SDS011;64121;48.666;8.114;2022-11-12T11:49:33;11.40;;;7.93;;
75537;SDS011;64121;48.666;8.114;2022-11-12T11:52:31;12.57;;;9.13;;
75537;SDS011;64121;48.666;8.114;2022-11-12T11:55:08;13.35;;;9.40;;
75537;SDS011;64121;48.666;8.114;2022-11-12T11:57:42;13.52;;;8.63;;
75537;SDS011;64121;48.666;8.114;2022-11-12T12:00:19;11.30;;;8.43;;
75537;SDS011;64121;48.666;8.114;2022-11-12T12:02:49;12.25;;;8.15;;
75537;SDS011;64121;48.666;8.114;2022-11-12T12:05:32;10.80;;;8.17;;
75537;SDS011;64121;48.666;8.114;2022-11-12T12:08:07;12.98;;;8.90;;
75537;SDS011;64121;48.666;8.114;2022-11-12T12:10:39;12.80;;;8.48;;
75537;SDS011;64121;48.666;8.114;2022-11-12T12:13:15;13.38;;;8.50;;
75537;SDS011;64121;48.666;8.114;2022-11-12T12:15:54;12.63;;;8.60;;
75537;SDS011;64121;48.666;8.114;2022-11-12T12:18:37;11.35;;;8.25;;
75537;SDS011;64121;48.666;8.114;2022-11-12T12:21:11;10.45;;;8.00;;
75537;SDS011;64121;48.666;8.114;2022-11-12T12:23:43;10.82;;;8.18;;
75537;SDS011;64121;48.666;8.114;2022-11-12T12:26:11;13.07;;;9.45;;
75537;SDS011;64121;48.666;8.114;2022-11-12T12:28:41;14.20;;;9.63;;
75537;SDS011;64121;48.666;8.114;2022-11-12T12:31:12;12.07;;;9.30;;
75537;SDS011;64121;48.666;8.114;2022-11-12T12:33:42;14.85;;;9.32;;
75537;SDS011;64121;48.666;8.114;2022-11-12T12:36:13;13.32;;;8.57;;
75537;SDS011;64121;48.666;8.114;2022-11-12T12:38:43;12.43;;;9.05;;
75537;SDS011;64121;48.666;8.114;2022-11-12T12:41:15;13.27;;;9.50;;
75537;SDS011;64121;48.666;8.114;2022-11-12T12:43:45;12.65;;;9.48;;
75537;SDS011;64121;48.666;8.114;2022-11-12T12:46:16;14.00;;;9.18;;
75537;SDS011;64121;48.666;8.114;2022-11-12T12:48:45;14.60;;;9.57;;
75537;SDS011;64121;48.666;8.114;2022-11-12T12:51:11;13.73;;;9.63;;
75537;SDS011;64121;48.666;8.114;2022-11-12T12:53:37;14.20;;;9.80;;
75537;SDS011;64121;48.666;8.114;2022-11-12T12:56:03;16.83;;;9.45;;
75537;SDS011;64121;48.666;8.114;2022-11-12T12:58:31;14.43;;;10.30;;
75537;SDS011;64121;48.666;8.114;2022-11-12T13:01:07;14.25;;;9.90;;
75537;SDS011;64121;48.666;8.114;2022-11-12T13:03:50;14.25;;;9.63;;
75537;SDS011;64121;48.666;8.114;2022-11-12T13:06:21;15.73;;;9.68;;
75537;SDS011;64121;48.666;8.114;2022-11-12T13:08:49;13.73;;;9.82;;
75537;SDS011;64121;48.666;8.114;2022-11-12T13:17:14;16.00;;;10.35;;
75537;SDS011;64121;48.666;8.114;2022-11-12T13:35:07;16.58;;;10.45;;
75537;SDS011;64121;48.666;8.114;2022-11-12T13:37:45;15.50;;;10.70;;
75537;SDS011;64121;48.666;8.114;2022-11-12T13:40:13;15.77;;;10.43;;
75537;SDS011;64121;48.666;8.114;2022-11-12T13:42:40;16.08;;;10.32;;
75537;SDS011;64121;48.666;8.114;2022-11-12T13:45:08;14.98;;;9.88;;
75537;SDS011;64121;48.666;8.114;2022-11-12T13:47:35;16.77;;;11.45;;
75537;SDS011;64121;48.666;8.114;2022-11-12T13:50:01;20.65;;;13.15;;
75537;SDS011;64121;48.666;8.114;2022-11-12T13:52:26;17.45;;;12.15;;
75537;SDS011;64121;48.666;8.114;2022-11-12T13:54:59;19.55;;;12.80;;
75537;SDS011;64121;48.666;8.114;2022-11-12T13:57:26;18.50;;;12.35;;
75537;SDS011;64121;48.666;8.114;2022-11-12T14:00:08;17.63;;;12.25;;
75537;SDS011;64121;48.666;8.114;2022-11-12T14:02:43;20.17;;;11.98;;
75537;SDS011;64121;48.666;8.114;2022-11-12T14:05:12;18.90;;;11.95;;
75537;SDS011;64121;48.666;8.114;2022-11-12T14:07:42;17.13;;;12.23;;
75537;SDS011;64121;48.666;8.114;2022-11-12T14:10:17;19.23;;;12.02;;
75537;SDS011;64121;48.666;8.114;2022-11-12T14:12:57;23.38;;;13.70;;
75537;SDS011;64121;48.666;8.114;2022-11-12T14:15:46;21.88;;;13.02;;
75537;SDS011;64121;48.666;8.114;2022-11-12T14:18:22;19.10;;;11.93;;
75537;SDS011;64121;48.666;8.114;2022-11-12T14:20:54;19.42;;;12.13;;
75537;SDS011;64121;48.666;8.114;2022-11-12T14:23:20;23.75;;;14.73;;
75537;SDS011;64121;48.666;8.114;2022-11-12T14:25:47;18.77;;;12.38;;
75537;SDS011;64121;48.666;8.114;2022-11-12T14:28:21;16.33;;;10.90;;
75537;SDS011;64121;48.666;8.114;2022-11-12T14:30:50;21.17;;;12.75;;
75537;SDS011;64121;48.666;8.114;2022-11-12T14:33:16;19.60;;;13.00;;
75537;SDS011;64121;48.666;8.114;2022-11-12T14:35:43;18.58;;;11.25;;
75537;SDS011;64121;48.666;8.114;2022-11-12T14:38:12;17.85;;;11.40;;
75537;SDS011;64121;48.666;8.114;2022-11-12T14:40:43;20.90;;;11.50;;
75537;SDS011;64121;48.666;8.114;2022-11-12T14:43:25;19.35;;;12.13;;
75537;SDS011;64121;48.666;8.114;2022-11-12T14:45:57;18.05;;;11.27;;
75537;SDS011;64121;48.666;8.114;2022-11-12T14:48:24;17.95;;;11.30;;
75537;SDS011;64121;48.666;8.114;2022-11-12T14:50:50;17.10;;;11.02;;
75537;SDS011;64121;48.666;8.114;2022-11-12T14:53:22;17.10;;;10.50;;
75537;SDS011;64121;48.666;8.114;2022-11-12T14:55:52;19.88;;;11.23;;
75537;SDS011;64121;48.666;8.114;2022-11-12T14:58:18;22.10;;;13.25;;
75537;SDS011;64121;48.666;8.114;2022-11-12T15:00:46;24.35;;;13.32;;
75537;SDS011;64121;48.666;8.114;2022-11-12T15:03:14;19.50;;;12.10;;
75537;SDS011;64121;48.666;8.114;2022-11-12T15:05:52;18.60;;;11.10;;
75537;SDS011;64121;48.666;8.114;2022-11-12T15:08:27;21.45;;;12.05;;
75537;SDS011;64121;48.666;8.114;2022-11-12T15:10:57;18.33;;;10.18;;
75537;SDS011;64121;48.666;8.114;2022-11-12T15:13:41;17.15;;;11.02;;